sensor_id;sensor_type;location;lat;lon;timestamp;pressure;altitude;pressure_sealevel;temperature;humidity
11678;BME280;5895;41.950;24.372;2023-06-04T00:00:59;87069.34;;;11.75;100.00
11678;BME280;5895;41.950;24.372;2023-06-04T00:03:26;87062.59;;;11.74;100.00
11678;BME280;5895;41.950;24.372;2023-06-04T00:05:55;87063.03;;;11.71;100.00
11678;BME280;5895;41.950;24.372;2023-06-04T00:08:23;87066.28;;;11.66;100.00
11678;BME280;5895;41.950;24.372;2023-06-04T00:10:50;87073.78;;;11.62;100.00
11678;BME280;5895;41.950;24.372;2023-06-04T00:13:18;87069.56;;;11.61;100.00
11678;BME280;5895;41.950;24.372;2023-06-04T00:15:45;87073.41;;;11.59;100.00
11678;BME280;5895;41.950;24.372;2023-06-04T00:18:12;87067.31;;;11.53;100.00
11678;BME280;5895;41.950;24.372;2023-06-04T00:20:40;87071.38;;;11.49;100.00
11678;BME280;5895;41.950;24.372;2023-06-04T00:23:09;87068.22;;;11.47;100.00
11678;BME280;5895;41.950;24.372;2023-06-04T00:25:36;87073.66;;;11.46;100.00
11678;BME280;5895;41.950;24.372;2023-06-04T00:28:03;87070.25;;;11.45;100.00
11678;BME280;5895;41.950;24.372;2023-06-04T00:30:31;87068.66;;;11.44;100.00
11678;BME280;5895;41.950;24.372;2023-06-04T00:32:59;87073.28;;;11.42;100.00
11678;BME280;5895;41.950;24.372;2023-06-04T00:35:26;87057.81;;;11.47;100.00
11678;BME280;5895;41.950;24.372;2023-06-04T00:37:53;87068.00;;;11.49;100.00
11678;BME280;5895;41.950;24.372;2023-06-04T00:40:22;87066.19;;;11.49;100.00
11678;BME280;5895;41.950;24.372;2023-06-04T00:42:49;87064.38;;;11.50;100.00
11678;BME280;5895;41.950;24.372;2023-06-04T00:45:16;87065.97;;;11.51;100.00
11678;BME280;5895;41.950;24.372;2023-06-04T00:47:45;87064.38;;;11.50;100.00
11678;BME280;5895;41.950;24.372;2023-06-04T00:50:13;87063.03;;;11.47;100.00
11678;BME280;5895;41.950;24.372;2023-06-04T00:52:41;87068.22;;;11.47;100.00
11678;BME280;5895;41.950;24.372;2023-06-04T00:55:10;87056.25;;;11.46;100.00
11678;BME280;5895;41.950;24.372;2023-06-04T00:57:39;87068.00;;;11.49;100.00
11678;BME280;5895;41.950;24.372;2023-06-04T01:00:07;87063.03;;;11.47;100.00
11678;BME280;5895;41.950;24.372;2023-06-04T01:02:38;87062.25;;;11.47;100.00
11678;BME280;5895;41.950;24.372;2023-06-04T01:05:14;87058.25;;;11.44;100.00
11678;BME280;5895;41.950;24.372;2023-06-04T01:07:45;87062.56;;;11.38;100.00
11678;BME280;5895;41.950;24.372;2023-06-04T01:10:12;87065.38;;;11.37;100.00
11678;BME280;5895;41.950;24.372;2023-06-04T01:12:42;87063.81;;;11.36;100.00
11678;BME280;5895;41.950;24.372;2023-06-04T01:15:10;87066.63;;;11.34;100.00
11678;BME280;5895;41.950;24.372;2023-06-04T01:17:40;87063.25;;;11.34;100.00
11678;BME280;5895;41.950;24.372;2023-06-04T01:20:18;87065.25;;;11.32;100.00
11678;BME280;5895;41.950;24.372;2023-06-04T01:22:56;87060.53;;;11.29;100.00
11678;BME280;5895;41.950;24.372;2023-06-04T01:25:33;87066.94;;;11.26;100.00
11678;BME280;5895;41.950;24.372;2023-06-04T01:28:06;87070.56;;;11.25;100.00
11678;BME280;5895;41.950;24.372;2023-06-04T01:30:37;87068.22;;;11.24;100.00
11678;BME280;5895;41.950;24.372;2023-06-04T01:33:09;87066.63;;;11.23;100.00
11678;BME280;5895;41.950;24.372;2023-06-04T01:35:37;87070.22;;;11.22;100.00
11678;BME280;5895;41.950;24.372;2023-06-04T01:38:04;87065.47;;;11.19;100.00
11678;BME280;5895;41.950;24.372;2023-06-04T01:40:32;87071.13;;;11.16;100.00
11678;BME280;5895;41.950;24.372;2023-06-04T01:42:59;87072.13;;;11.15;100.00
11678;BME280;5895;41.950;24.372;2023-06-04T01:45:28;87072.38;;;11.13;100.00
11678;BME280;5895;41.950;24.372;2023-06-04T01:47:56;87072.00;;;11.09;100.00
11678;BME280;5895;41.950;24.372;2023-06-04T01:50:24;87073.59;;;11.10;100.00
11678;BME280;5895;41.950;24.372;2023-06-04T01:52:51;87075.63;;;11.08;100.00
11678;BME280;5895;41.950;24.372;2023-06-04T01:55:18;87062.88;;;11.07;100.00
11678;BME280;5895;41.950;24.372;2023-06-04T01:57:46;87075.25;;;11.05;100.00
11678;BME280;5895;41.950;24.372;2023-06-04T02:00:14;87071.69;;;11.06;100.00
11678;BME280;5895;41.950;24.372;2023-06-04T02:02:44;87081.25;;;11.05;100.00
11678;BME280;5895;41.950;24.372;2023-06-04T02:05:13;87080.69;;;11.03;100.00
11678;BME280;5895;41.950;24.372;2023-06-04T02:07:42;87086.13;;;11.02;100.00
11678;BME280;5895;41.950;24.372;2023-06-04T02:10:11;87085.53;;;11.00;100.00
11678;BME280;5895;41.950;24.372;2023-06-04T02:12:39;87087.34;;;10.99;100.00
11678;BME280;5895;41.950;24.372;2023-06-04T02:15:10;87088.34;;;10.98;100.00
11678;BME280;5895;41.950;24.372;2023-06-04T02:17:37;87093.31;;;11.00;100.00
11678;BME280;5895;41.950;24.372;2023-06-04T02:20:08;87092.53;;;10.99;100.00
11678;BME280;5895;41.950;24.372;2023-06-04T02:22:36;87093.53;;;10.98;100.00
11678;BME280;5895;41.950;24.372;2023-06-04T02:25:04;87102.13;;;10.99;100.00
11678;BME280;5895;41.950;24.372;2023-06-04T02:27:34;87096.13;;;10.98;100.00
11678;BME280;5895;41.950;24.372;2023-06-04T02:30:02;87097.94;;;10.98;100.00
11678;BME280;5895;41.950;24.372;2023-06-04T02:32:29;87108.56;;;10.96;100.00
11678;BME280;5895;41.950;24.372;2023-06-04T02:34:56;87115.34;;;10.97;100.00
11678;BME280;5895;41.950;24.372;2023-06-04T02:37:25;87108.56;;;10.96;100.00
11678;BME280;5895;41.950;24.372;2023-06-04T02:39:52;87109.56;;;10.95;100.00
11678;BME280;5895;41.950;24.372;2023-06-04T02:42:19;87099.19;;;10.95;100.00
11678;BME280;5895;41.950;24.372;2023-06-04T02:44:47;87108.78;;;10.95;100.00
11678;BME280;5895;41.950;24.372;2023-06-04T02:47:14;87103.00;;;10.93;100.00
11678;BME280;5895;41.950;24.372;2023-06-04T02:49:41;87107.97;;;10.94;100.00
11678;BME280;5895;41.950;24.372;2023-06-04T02:52:09;87114.19;;;10.93;100.00
11678;BME280;5895;41.950;24.372;2023-06-04T02:54:37;87110.56;;;10.94;100.00
11678;BME280;5895;41.950;24.372;2023-06-04T02:57:06;87114.19;;;10.93;100.00
11678;BME280;5895;41.950;24.372;2023-06-04T02:59:34;87115.75;;;10.94;100.00
11678;BME280;5895;41.950;24.372;2023-06-04T03:02:02;87112.19;;;10.95;100.00
11678;BME280;5895;41.950;24.372;2023-06-04T03:04:29;87120.53;;;10.97;100.00
11678;BME280;5895;41.950;24.372;2023-06-04T03:07:00;87112.50;;;10.99;100.00
11678;BME280;5895;41.950;24.372;2023-06-04T03:09:28;87119.06;;;11.01;100.00
11678;BME280;5895;41.950;24.372;2023-06-04T03:11:59;87130.03;;;11.03;100.00
11678;BME280;5895;41.950;24.372;2023-06-04T03:14:27;87124.59;;;11.05;100.00
11678;BME280;5895;41.950;24.372;2023-06-04T03:16:58;87124.41;;;11.06;100.00
11678;BME280;5895;41.950;24.372;2023-06-04T03:19:33;87125.97;;;11.07;100.00
11678;BME280;5895;41.950;24.372;2023-06-04T03:22:01;87121.22;;;11.04;100.00
11678;BME280;5895;41.950;24.372;2023-06-04T03:24:35;87129.91;;;11.10;100.00
11678;BME280;5895;41.950;24.372;2023-06-04T03:27:06;87125.88;;;11.14;100.00
11678;BME280;5895;41.950;24.372;2023-06-04T03:29:34;87126.66;;;11.15;100.00
11678;BME280;5895;41.950;24.372;2023-06-04T03:32:02;87121.25;;;11.16;100.00
11678;BME280;5895;41.950;24.372;2023-06-04T03:34:29;87126.25;;;11.18;100.00
11678;BME280;5895;41.950;24.372;2023-06-04T03:36:58;87125.34;;;11.24;100.00
11678;BME280;5895;41.950;24.372;2023-06-04T03:39:25;87133.13;;;11.24;100.00
11678;BME280;5895;41.950;24.372;2023-06-04T03:41:53;87132.34;;;11.23;100.00
11678;BME280;5895;41.950;24.372;2023-06-04T03:44:22;87137.66;;;11.28;100.00
11678;BME280;5895;41.950;24.372;2023-06-04T03:46:50;87135.06;;;11.28;100.00
11678;BME280;5895;41.950;24.372;2023-06-04T03:49:17;87143.78;;;11.34;100.00
11678;BME280;5895;41.950;24.372;2023-06-04T03:51:45;87142.75;;;11.35;100.00
11678;BME280;5895;41.950;24.372;2023-06-04T03:54:12;87144.34;;;11.36;100.00
11678;BME280;5895;41.950;24.372;2023-06-04T03:56:43;87141.19;;;11.34;100.00
11678;BME280;5895;41.950;24.372;2023-06-04T03:59:10;87143.88;;;11.39;100.00
11678;BME280;5895;41.950;24.372;2023-06-04T04:01:39;87143.69;;;11.41;100.00
11678;BME280;5895;41.950;24.372;2023-06-04T04:04:07;87143.56;;;11.47;100.00
11678;BME280;5895;41.950;24.372;2023-06-04T04:06:34;87144.47;;;11.53;100.00
11678;BME280;5895;41.950;24.372;2023-06-04T04:09:03;87137.25;;;11.55;100.00
11678;BME280;5895;41.950;24.372;2023-06-04T04:11:31;87147.53;;;11.61;100.00
11678;BME280;5895;41.950;24.372;2023-06-04T04:13:58;87142.44;;;11.66;100.00
11678;BME280;5895;41.950;24.372;2023-06-04T04:16:26;87148.25;;;11.69;100.00
11678;BME280;5895;41.950;24.372;2023-06-04T04:18:56;87140.56;;;11.74;100.00
11678;BME280;5895;41.950;24.372;2023-06-04T04:21:23;87143.28;;;11.79;100.00
11678;BME280;5895;41.950;24.372;2023-06-04T04:23:50;87144.84;;;11.80;100.00
11678;BME280;5895;41.950;24.372;2023-06-04T04:26:18;87149.19;;;11.86;100.00
11678;BME280;5895;41.950;24.372;2023-06-04T04:28:46;87156.06;;;11.92;100.00
11678;BME280;5895;41.950;24.372;2023-06-04T04:31:13;87157.78;;;11.98;100.00
11678;BME280;5895;41.950;24.372;2023-06-04T04:33:41;87158.91;;;12.02;100.00
11678;BME280;5895;41.950;24.372;2023-06-04T04:36:10;87160.94;;;12.12;100.00
11678;BME280;5895;41.950;24.372;2023-06-04T04:38:39;87161.75;;;12.12;100.00
11678;BME280;5895;41.950;24.372;2023-06-04T04:41:07;87164.78;;;12.21;100.00
11678;BME280;5895;41.950;24.372;2023-06-04T04:43:36;87158.09;;;12.25;100.00
11678;BME280;5895;41.950;24.372;2023-06-04T04:46:05;87160.72;;;12.25;100.00
11678;BME280;5895;41.950;24.372;2023-06-04T04:48:32;87165.25;;;12.30;100.00
11678;BME280;5895;41.950;24.372;2023-06-04T04:51:00;87164.75;;;12.33;100.00
11678;BME280;5895;41.950;24.372;2023-06-04T04:53:29;87171.56;;;12.34;100.00
11678;BME280;5895;41.950;24.372;2023-06-04T04:55:57;87172.13;;;12.36;100.00
11678;BME280;5895;41.950;24.372;2023-06-04T04:58:24;87167.47;;;12.38;100.00
11678;BME280;5895;41.950;24.372;2023-06-04T05:00:52;87170.63;;;12.40;100.00
11678;BME280;5895;41.950;24.372;2023-06-04T05:03:19;87180.84;;;12.41;100.00
11678;BME280;5895;41.950;24.372;2023-06-04T05:05:46;87180.16;;;12.46;100.00
11678;BME280;5895;41.950;24.372;2023-06-04T05:08:14;87189.66;;;12.52;100.00
11678;BME280;5895;41.950;24.372;2023-06-04T05:10:43;87179.91;;;12.59;100.00
11678;BME280;5895;41.950;24.372;2023-06-04T05:13:10;87186.56;;;12.67;100.00
11678;BME280;5895;41.950;24.372;2023-06-04T05:15:38;87183.63;;;12.75;100.00
11678;BME280;5895;41.950;24.372;2023-06-04T05:18:08;87184.72;;;12.79;100.00
11678;BME280;5895;41.950;24.372;2023-06-04T05:20:35;87185.72;;;12.90;100.00
11678;BME280;5895;41.950;24.372;2023-06-04T05:23:03;87186.41;;;12.97;100.00
11678;BME280;5895;41.950;24.372;2023-06-04T05:25:31;87186.03;;;13.05;100.00
11678;BME280;5895;41.950;24.372;2023-06-04T05:27:59;87187.69;;;13.11;100.00
11678;BME280;5895;41.950;24.372;2023-06-04T05:30:27;87184.41;;;13.16;100.00
11678;BME280;5895;41.950;24.372;2023-06-04T05:32:54;87183.84;;;13.26;100.00
11678;BME280;5895;41.950;24.372;2023-06-04T05:35:22;87189.25;;;13.36;100.00
11678;BME280;5895;41.950;24.372;2023-06-04T05:37:49;87192.00;;;13.46;100.00
11678;BME280;5895;41.950;24.372;2023-06-04T05:40:19;87194.88;;;13.61;100.00
11678;BME280;5895;41.950;24.372;2023-06-04T05:42:48;87195.63;;;13.73;100.00
11678;BME280;5895;41.950;24.372;2023-06-04T05:45:17;87202.59;;;13.85;100.00
11678;BME280;5895;41.950;24.372;2023-06-04T05:47:44;87195.47;;;13.97;100.00
11678;BME280;5895;41.950;24.372;2023-06-04T05:50:11;87202.69;;;14.07;100.00
11678;BME280;5895;41.950;24.372;2023-06-04T05:52:39;87205.78;;;14.20;100.00
11678;BME280;5895;41.950;24.372;2023-06-04T05:55:07;87203.38;;;14.36;100.00
11678;BME280;5895;41.950;24.372;2023-06-04T05:57:35;87198.97;;;14.53;100.00
11678;BME280;5895;41.950;24.372;2023-06-04T06:00:03;87200.47;;;14.66;100.00
11678;BME280;5895;41.950;24.372;2023-06-04T06:02:36;87210.81;;;14.77;100.00
11678;BME280;5895;41.950;24.372;2023-06-04T06:05:05;87210.31;;;14.80;100.00
11678;BME280;5895;41.950;24.372;2023-06-04T06:07:33;87203.97;;;14.93;100.00
11678;BME280;5895;41.950;24.372;2023-06-04T06:10:01;87209.56;;;15.02;100.00
11678;BME280;5895;41.950;24.372;2023-06-04T06:12:28;87213.81;;;15.08;100.00
11678;BME280;5895;41.950;24.372;2023-06-04T06:14:56;87212.22;;;15.07;100.00
11678;BME280;5895;41.950;24.372;2023-06-04T06:17:23;87222.94;;;15.05;100.00
11678;BME280;5895;41.950;24.372;2023-06-04T06:19:53;87218.97;;;15.03;100.00
11678;BME280;5895;41.950;24.372;2023-06-04T06:22:20;87213.28;;;15.06;100.00
11678;BME280;5895;41.950;24.372;2023-06-04T06:24:48;87218.56;;;15.11;100.00
11678;BME280;5895;41.950;24.372;2023-06-04T06:27:15;87221.78;;;15.18;100.00
11678;BME280;5895;41.950;24.372;2023-06-04T06:29:43;87225.06;;;15.30;100.00
11678;BME280;5895;41.950;24.372;2023-06-04T06:32:11;87222.63;;;15.46;100.00
11678;BME280;5895;41.950;24.372;2023-06-04T06:34:38;87221.97;;;15.55;100.00
11678;BME280;5895;41.950;24.372;2023-06-04T06:37:08;87220.19;;;15.61;100.00
11678;BME280;5895;41.950;24.372;2023-06-04T06:39:35;87221.19;;;15.55;100.00
11678;BME280;5895;41.950;24.372;2023-06-04T06:42:03;87222.16;;;15.49;100.00
11678;BME280;5895;41.950;24.372;2023-06-04T06:44:30;87232.31;;;15.45;100.00
11678;BME280;5895;41.950;24.372;2023-06-04T06:46:58;87226.88;;;15.52;100.00
11678;BME280;5895;41.950;24.372;2023-06-04T06:49:25;87221.66;;;15.52;100.00
11678;BME280;5895;41.950;24.372;2023-06-04T06:51:53;87233.66;;;15.70;100.00
11678;BME280;5895;41.950;24.372;2023-06-04T06:54:22;87233.28;;;15.83;100.00
11678;BME280;5895;41.950;24.372;2023-06-04T06:56:49;87228.91;;;15.94;100.00
11678;BME280;5895;41.950;24.372;2023-06-04T06:59:16;87234.28;;;16.09;100.00
11678;BME280;5895;41.950;24.372;2023-06-04T07:01:44;87240.03;;;16.06;100.00
11678;BME280;5895;41.950;24.372;2023-06-04T07:04:13;87233.75;;;16.07;100.00
11678;BME280;5895;41.950;24.372;2023-06-04T07:06:40;87238.44;;;16.05;100.00
11678;BME280;5895;41.950;24.372;2023-06-04T07:09:07;87241.56;;;16.02;100.00
11678;BME280;5895;41.950;24.372;2023-06-04T07:11:36;87242.25;;;15.92;100.00
11678;BME280;5895;41.950;24.372;2023-06-04T07:14:04;87246.06;;;15.79;100.00
11678;BME280;5895;41.950;24.372;2023-06-04T07:16:31;87244.53;;;15.83;100.00
11678;BME280;5895;41.950;24.372;2023-06-04T07:19:00;87254.50;;;15.86;100.00
11678;BME280;5895;41.950;24.372;2023-06-04T07:21:28;87255.06;;;15.89;100.00
11678;BME280;5895;41.950;24.372;2023-06-04T07:23:55;87259.84;;;15.97;100.00
11678;BME280;5895;41.950;24.372;2023-06-04T07:26:23;87255.28;;;16.14;100.00
11678;BME280;5895;41.950;24.372;2023-06-04T07:28:52;87260.13;;;16.27;99.70
11678;BME280;5895;41.950;24.372;2023-06-04T07:31:19;87254.97;;;16.37;98.75
11678;BME280;5895;41.950;24.372;2023-06-04T07:33:47;87256.16;;;16.52;98.12
11678;BME280;5895;41.950;24.372;2023-06-04T07:36:14;87257.81;;;16.63;96.90
11678;BME280;5895;41.950;24.372;2023-06-04T07:38:42;87256.31;;;16.72;95.89
11678;BME280;5895;41.950;24.372;2023-06-04T07:41:10;87257.19;;;16.83;95.30
11678;BME280;5895;41.950;24.372;2023-06-04T07:43:37;87257.00;;;16.89;97.36
11678;BME280;5895;41.950;24.372;2023-06-04T07:46:06;87248.63;;;16.92;97.78
11678;BME280;5895;41.950;24.372;2023-06-04T07:48:35;87262.59;;;17.03;98.80
11678;BME280;5895;41.950;24.372;2023-06-04T07:51:03;87263.28;;;16.93;99.38
11678;BME280;5895;41.950;24.372;2023-06-04T07:53:30;87273.22;;;16.86;99.27
11678;BME280;5895;41.950;24.372;2023-06-04T07:55:58;87271.41;;;16.92;100.00
11678;BME280;5895;41.950;24.372;2023-06-04T07:58:25;87270.28;;;16.83;100.00
11678;BME280;5895;41.950;24.372;2023-06-04T08:00:53;87277.97;;;16.89;100.00
11678;BME280;5895;41.950;24.372;2023-06-04T08:03:22;87273.28;;;16.97;100.00
11678;BME280;5895;41.950;24.372;2023-06-04T08:05:50;87282.28;;;17.11;100.00
11678;BME280;5895;41.950;24.372;2023-06-04T08:08:17;87284.97;;;17.21;100.00
11678;BME280;5895;41.950;24.372;2023-06-04T08:10:44;87282.63;;;17.19;100.00
11678;BME280;5895;41.950;24.372;2023-06-04T08:13:12;87285.81;;;17.27;99.58
11678;BME280;5895;41.950;24.372;2023-06-04T08:15:39;87273.31;;;17.44;98.07
11678;BME280;5895;41.950;24.372;2023-06-04T08:18:06;87277.59;;;17.60;98.58
11678;BME280;5895;41.950;24.372;2023-06-04T08:20:35;87277.63;;;17.70;98.44
11678;BME280;5895;41.950;24.372;2023-06-04T08:23:03;87284.81;;;17.85;97.71
11678;BME280;5895;41.950;24.372;2023-06-04T08:25:30;87289.53;;;17.88;98.63
11678;BME280;5895;41.950;24.372;2023-06-04T08:27:58;87290.38;;;17.99;97.83
11678;BME280;5895;41.950;24.372;2023-06-04T08:30:25;87283.84;;;18.17;97.09
11678;BME280;5895;41.950;24.372;2023-06-04T08:32:53;87290.75;;;18.38;96.46
11678;BME280;5895;41.950;24.372;2023-06-04T08:35:20;87292.88;;;18.51;96.00
11678;BME280;5895;41.950;24.372;2023-06-04T08:37:49;87293.94;;;18.56;96.45
11678;BME280;5895;41.950;24.372;2023-06-04T08:40:17;87288.66;;;18.45;96.33
11678;BME280;5895;41.950;24.372;2023-06-04T08:42:44;87291.00;;;18.32;97.18
11678;BME280;5895;41.950;24.372;2023-06-04T08:45:13;87288.88;;;18.18;98.31
11678;BME280;5895;41.950;24.372;2023-06-04T08:47:43;87293.56;;;18.11;98.41
11678;BME280;5895;41.950;24.372;2023-06-04T08:50:12;87297.69;;;17.87;99.43
11678;BME280;5895;41.950;24.372;2023-06-04T08:52:41;87303.66;;;17.72;100.00
11678;BME280;5895;41.950;24.372;2023-06-04T08:55:11;87299.91;;;17.63;100.00
11678;BME280;5895;41.950;24.372;2023-06-04T08:57:40;87311.03;;;17.38;100.00
11678;BME280;5895;41.950;24.372;2023-06-04T09:00:08;87320.41;;;17.24;100.00
11678;BME280;5895;41.950;24.372;2023-06-04T09:02:36;87323.38;;;17.00;100.00
11678;BME280;5895;41.950;24.372;2023-06-04T09:05:05;87314.16;;;16.92;100.00
11678;BME280;5895;41.950;24.372;2023-06-04T09:07:35;87315.72;;;16.66;100.00
11678;BME280;5895;41.950;24.372;2023-06-04T09:10:07;87322.75;;;16.61;100.00
11678;BME280;5895;41.950;24.372;2023-06-04T09:12:39;87325.81;;;16.75;100.00
11678;BME280;5895;41.950;24.372;2023-06-04T09:15:09;87325.06;;;16.79;100.00
11678;BME280;5895;41.950;24.372;2023-06-04T09:17:36;87324.94;;;16.69;100.00
11678;BME280;5895;41.950;24.372;2023-06-04T09:20:04;87325.63;;;16.59;100.00
11678;BME280;5895;41.950;24.372;2023-06-04T09:22:35;87328.41;;;16.48;100.00
11678;BME280;5895;41.950;24.372;2023-06-04T09:25:05;87325.47;;;16.39;100.00
11678;BME280;5895;41.950;24.372;2023-06-04T09:27:40;87323.34;;;16.14;100.00
11678;BME280;5895;41.950;24.372;2023-06-04T09:30:08;87329.47;;;15.98;100.00
11678;BME280;5895;41.950;24.372;2023-06-04T09:32:36;87329.53;;;15.81;100.00
11678;BME280;5895;41.950;24.372;2023-06-04T09:35:10;87328.78;;;15.64;100.00
11678;BME280;5895;41.950;24.372;2023-06-04T09:37:38;87331.03;;;15.55;100.00
11678;BME280;5895;41.950;24.372;2023-06-04T09:40:07;87341.97;;;15.52;100.00
11678;BME280;5895;41.950;24.372;2023-06-04T09:42:46;87339.28;;;15.47;100.00
11678;BME280;5895;41.950;24.372;2023-06-04T09:45:26;87342.84;;;15.41;100.00
11678;BME280;5895;41.950;24.372;2023-06-04T09:47:55;87348.91;;;15.24;100.00
11678;BME280;5895;41.950;24.372;2023-06-04T09:50:25;87352.03;;;15.04;100.00
11678;BME280;5895;41.950;24.372;2023-06-04T09:52:53;87350.03;;;14.95;100.00
11678;BME280;5895;41.950;24.372;2023-06-04T09:55:20;87344.41;;;14.86;100.00
11678;BME280;5895;41.950;24.372;2023-06-04T09:57:50;87350.13;;;14.83;100.00
11678;BME280;5895;41.950;24.372;2023-06-04T10:00:19;87350.13;;;14.83;100.00
11678;BME280;5895;41.950;24.372;2023-06-04T10:02:48;87350.44;;;14.87;100.00
11678;BME280;5895;41.950;24.372;2023-06-04T10:05:16;87353.63;;;14.89;100.00
11678;BME280;5895;41.950;24.372;2023-06-04T10:07:48;87352.25;;;14.86;100.00
11678;BME280;5895;41.950;24.372;2023-06-04T10:10:20;87351.00;;;14.89;100.00
11678;BME280;5895;41.950;24.372;2023-06-04T10:12:50;87345.19;;;14.87;100.00
11678;BME280;5895;41.950;24.372;2023-06-04T10:15:21;87349.63;;;14.86;100.00
11678;BME280;5895;41.950;24.372;2023-06-04T10:17:49;87352.50;;;14.85;100.00
11678;BME280;5895;41.950;24.372;2023-06-04T10:20:18;87353.13;;;14.75;100.00
11678;BME280;5895;41.950;24.372;2023-06-04T10:22:48;87349.00;;;14.62;100.00
11678;BME280;5895;41.950;24.372;2023-06-04T10:25:15;87347.09;;;14.58;100.00
11678;BME280;5895;41.950;24.372;2023-06-04T10:27:44;87352.66;;;14.61;100.00
11678;BME280;5895;41.950;24.372;2023-06-04T10:30:14;87341.66;;;14.59;100.00
11678;BME280;5895;41.950;24.372;2023-06-04T10:32:42;87351.53;;;14.57;100.00
11678;BME280;5895;41.950;24.372;2023-06-04T10:35:09;87349.50;;;14.59;100.00
11678;BME280;5895;41.950;24.372;2023-06-04T10:37:37;87351.28;;;14.59;100.00
11678;BME280;5895;41.950;24.372;2023-06-04T10:40:06;87345.28;;;14.58;100.00
11678;BME280;5895;41.950;24.372;2023-06-04T10:42:38;87352.66;;;14.61;100.00
11678;BME280;5895;41.950;24.372;2023-06-04T10:45:08;87348.22;;;14.62;100.00
11678;BME280;5895;41.950;24.372;2023-06-04T10:47:38;87350.91;;;14.50;100.00
11678;BME280;5895;41.950;24.372;2023-06-04T10:50:07;87350.34;;;14.48;100.00
11678;BME280;5895;41.950;24.372;2023-06-04T10:52:35;87347.75;;;14.48;100.00
11678;BME280;5895;41.950;24.372;2023-06-04T10:55:04;87348.03;;;14.51;100.00
11678;BME280;5895;41.950;24.372;2023-06-04T10:57:32;87344.97;;;14.54;100.00
11678;BME280;5895;41.950;24.372;2023-06-04T11:00:01;87338.72;;;14.55;100.00
11678;BME280;5895;41.950;24.372;2023-06-04T11:02:31;87342.38;;;14.54;100.00
11678;BME280;5895;41.950;24.372;2023-06-04T11:05:02;87346.22;;;14.52;100.00
11678;BME280;5895;41.950;24.372;2023-06-04T11:07:41;87342.53;;;14.48;100.00
11678;BME280;5895;41.950;24.372;2023-06-04T11:10:10;87354.53;;;14.49;100.00
11678;BME280;5895;41.950;24.372;2023-06-04T11:12:44;87354.53;;;14.49;100.00
11678;BME280;5895;41.950;24.372;2023-06-04T11:15:12;87360.31;;;14.51;100.00
11678;BME280;5895;41.950;24.372;2023-06-04T11:17:50;87356.28;;;14.60;100.00
11678;BME280;5895;41.950;24.372;2023-06-04T11:20:20;87347.50;;;14.66;100.00
11678;BME280;5895;41.950;24.372;2023-06-04T11:22:53;87353.28;;;14.68;100.00
11678;BME280;5895;41.950;24.372;2023-06-04T11:25:21;87351.69;;;14.67;100.00
11678;BME280;5895;41.950;24.372;2023-06-04T11:27:49;87356.59;;;14.64;100.00
11678;BME280;5895;41.950;24.372;2023-06-04T11:30:17;87356.75;;;14.57;100.00
11678;BME280;5895;41.950;24.372;2023-06-04T11:32:44;87354.13;;;14.57;100.00
11678;BME280;5895;41.950;24.372;2023-06-04T11:35:11;87350.59;;;14.63;100.00
11678;BME280;5895;41.950;24.372;2023-06-04T11:37:40;87357.16;;;14.66;100.00
11678;BME280;5895;41.950;24.372;2023-06-04T11:40:17;87352.16;;;14.64;100.00
11678;BME280;5895;41.950;24.372;2023-06-04T11:42:46;87361.81;;;14.64;100.00
11678;BME280;5895;41.950;24.372;2023-06-04T11:45:16;87356.28;;;14.60;100.00
11678;BME280;5895;41.950;24.372;2023-06-04T11:47:45;87361.53;;;14.60;100.00
11678;BME280;5895;41.950;24.372;2023-06-04T11:50:14;87357.38;;;14.64;100.00
11678;BME280;5895;41.950;24.372;2023-06-04T11:52:43;87352.03;;;14.71;100.00
11678;BME280;5895;41.950;24.372;2023-06-04T11:55:11;87359.06;;;14.70;100.00
11678;BME280;5895;41.950;24.372;2023-06-04T11:57:39;87363.34;;;14.76;100.00
11678;BME280;5895;41.950;24.372;2023-06-04T12:00:08;87359.72;;;14.77;100.00
11678;BME280;5895;41.950;24.372;2023-06-04T12:02:36;87360.16;;;14.74;100.00
11678;BME280;5895;41.950;24.372;2023-06-04T12:05:14;87359.13;;;14.75;100.00
11678;BME280;5895;41.950;24.372;2023-06-04T12:07:43;87368.50;;;14.71;100.00
11678;BME280;5895;41.950;24.372;2023-06-04T12:10:11;87360.56;;;14.66;100.00
11678;BME280;5895;41.950;24.372;2023-06-04T12:12:38;87364.75;;;14.67;100.00
11678;BME280;5895;41.950;24.372;2023-06-04T12:15:08;87376.09;;;14.73;100.00
11678;BME280;5895;41.950;24.372;2023-06-04T12:17:35;87365.97;;;14.76;100.00
11678;BME280;5895;41.950;24.372;2023-06-04T12:20:04;87381.00;;;14.86;100.00
11678;BME280;5895;41.950;24.372;2023-06-04T12:22:31;87369.44;;;14.99;100.00
11678;BME280;5895;41.950;24.372;2023-06-04T12:25:00;87376.41;;;15.10;100.00
11678;BME280;5895;41.950;24.372;2023-06-04T12:27:28;87376.50;;;15.15;100.00
11678;BME280;5895;41.950;24.372;2023-06-04T12:30:01;87374.50;;;15.22;100.00
11678;BME280;5895;41.950;24.372;2023-06-04T12:32:35;87372.75;;;15.28;100.00
11678;BME280;5895;41.950;24.372;2023-06-04T12:35:03;87365.00;;;15.33;100.00
11678;BME280;5895;41.950;24.372;2023-06-04T12:37:30;87377.81;;;15.34;100.00
11678;BME280;5895;41.950;24.372;2023-06-04T12:39:58;87376.22;;;15.33;100.00
11678;BME280;5895;41.950;24.372;2023-06-04T12:42:26;87370.75;;;15.35;100.00
11678;BME280;5895;41.950;24.372;2023-06-04T12:44:54;87373.38;;;15.35;100.00
11678;BME280;5895;41.950;24.372;2023-06-04T12:47:22;87381.47;;;15.33;100.00
11678;BME280;5895;41.950;24.372;2023-06-04T12:49:49;87371.00;;;15.33;100.00
11678;BME280;5895;41.950;24.372;2023-06-04T12:52:17;87378.84;;;15.33;100.00
11678;BME280;5895;41.950;24.372;2023-06-04T12:54:44;87383.03;;;15.34;100.00
11678;BME280;5895;41.950;24.372;2023-06-04T12:57:12;87381.72;;;15.32;100.00